Time;durP1;ratioP1;P1;durP2;ratioP2;P2;SDS_P1;SDS_P2;PMS_P1;PMS_P2;Temp;Humidity;BMP_temperature;BMP_pressure;BME280_temperature;BME280_humidity;BME280_pressure;Samples;Min_cycle;Max_cycle;Signal;HPM_P1;HPM_P2
2021/03/29 00:00:10;;;;;;;7.37;5.30;;;9.90;99.90;;;;;;5089876;28;20913;-64
2021/03/29 00:02:36;;;;;;;9.03;4.80;;;9.90;99.90;;;;;;5089229;28;20916;-64
2021/03/29 00:05:03;;;;;;;10.90;4.80;;;9.90;99.90;;;;;;5089122;28;20456;-64
2021/03/29 00:07:29;;;;;;;11.13;5.27;;;9.90;99.90;;;;;;5089283;28;20389;-64
2021/03/29 00:09:56;;;;;;;9.00;5.40;;;9.90;99.90;;;;;;5096629;28;20789;-64
2021/03/29 00:12:24;;;;;;;10.70;6.13;;;9.90;99.90;;;;;;5089333;28;20494;-64
2021/03/29 00:14:51;;;;;;;11.70;5.03;;;9.90;99.90;;;;;;5089083;28;20448;-64
2021/03/29 00:17:17;;;;;;;10.53;5.83;;;9.90;99.90;;;;;;5075461;28;20535;-64
2021/03/29 00:19:44;;;;;;;15.13;5.43;;;9.90;99.90;;;;;;5075880;28;20387;-64
2021/03/29 00:22:10;;;;;;;14.17;5.90;;;10.00;99.90;;;;;;5075542;28;20478;-64
2021/03/29 00:24:36;;;;;;;13.87;6.00;;;10.00;99.90;;;;;;5075634;28;20966;-64
2021/03/29 00:27:03;;;;;;;13.40;6.10;;;10.00;99.90;;;;;;5075208;28;20470;-64
2021/03/29 00:29:29;;;;;;;11.03;6.70;;;10.00;99.90;;;;;;5074112;28;20390;-64
2021/03/29 00:31:56;;;;;;;16.70;8.13;;;10.00;99.90;;;;;;5075351;28;20950;-64
2021/03/29 00:34:21;;;;;;;12.37;7.50;;;10.00;99.90;;;;;;5074681;28;20414;-64
2021/03/29 00:36:48;;;;;;;11.90;6.47;;;10.00;99.90;;;;;;5075408;28;20417;-64
2021/03/29 00:39:16;;;;;;;14.50;6.90;;;10.00;99.90;;;;;;5073991;28;20195;-64
2021/03/29 00:41:43;;;;;;;11.47;6.27;;;10.00;99.90;;;;;;5075084;28;20482;-64
2021/03/29 00:44:09;;;;;;;14.97;7.60;;;10.00;99.90;;;;;;5073567;28;20430;-64
2021/03/29 00:46:38;;;;;;;11.80;6.70;;;10.00;99.90;;;;;;5074787;28;20426;-64
2021/03/29 00:49:04;;;;;;;20.07;7.33;;;10.00;99.90;;;;;;5075144;28;20422;-64
2021/03/29 00:51:32;;;;;;;10.27;7.57;;;10.00;99.90;;;;;;5075620;28;20949;-64
2021/03/29 00:54:00;;;;;;;11.40;6.83;;;10.00;99.90;;;;;;5082325;28;20780;-64
2021/03/29 00:56:27;;;;;;;13.83;7.30;;;10.10;99.90;;;;;;5093938;28;20763;-64
2021/03/29 00:58:54;;;;;;;13.77;7.20;;;10.10;99.90;;;;;;5094854;28;20405;-64
2021/03/29 01:03:59;;;;;;;12.20;7.43;;;10.10;99.90;;;;;;5131912;27;20497;-63
2021/03/29 01:06:29;;;;;;;13.10;7.10;;;10.20;99.90;;;;;;5131441;28;20877;-63
2021/03/29 01:09:00;;;;;;;11.20;6.63;;;10.20;99.90;;;;;;5113823;28;20410;-64
2021/03/29 01:11:28;;;;;;;12.73;7.13;;;10.20;99.90;;;;;;5110798;28;20804;-66
2021/03/29 01:14:02;;;;;;;15.10;6.97;;;10.20;99.90;;;;;;5110467;28;20393;-65
2021/03/29 01:16:33;;;;;;;15.97;7.50;;;10.20;99.90;;;;;;5110560;28;20422;-65
2021/03/29 01:19:00;;;;;;;13.20;6.53;;;10.10;99.90;;;;;;5109701;28;20411;-65
2021/03/29 01:24:30;;;;;;;20.80;7.17;;;10.00;99.90;;;;;;5107914;27;20605;-64
2021/03/29 01:26:56;;;;;;;9.97;6.03;;;10.00;99.90;;;;;;5089413;28;20386;-64
2021/03/29 01:29:30;;;;;;;10.50;5.97;;;10.00;99.90;;;;;;5090263;28;20386;-64
2021/03/29 01:31:59;;;;;;;10.53;6.90;;;10.00;99.90;;;;;;5090740;28;20380;-64
2021/03/29 01:34:27;;;;;;;17.30;6.40;;;9.90;99.90;;;;;;5090271;28;20386;-64
2021/03/29 01:36:53;;;;;;;9.60;5.50;;;9.90;99.90;;;;;;5089988;28;20497;-64
2021/03/29 01:39:21;;;;;;;13.43;6.60;;;9.90;99.90;;;;;;5088752;28;20448;-64
2021/03/29 01:41:47;;;;;;;13.00;7.13;;;9.80;99.90;;;;;;5089910;28;20393;-64
2021/03/29 01:44:13;;;;;;;19.00;10.13;;;9.80;99.90;;;;;;5089907;28;20491;-64
2021/03/29 01:46:39;;;;;;;19.67;9.00;;;9.80;99.90;;;;;;5089979;28;20985;-64
2021/03/29 01:49:05;;;;;;;14.93;8.47;;;9.70;99.90;;;;;;5088534;28;20223;-64
2021/03/29 01:51:31;;;;;;;14.53;6.73;;;9.70;99.90;;;;;;5089977;28;20912;-64
2021/03/29 01:53:57;;;;;;;12.27;6.50;;;9.60;99.90;;;;;;5089529;28;20416;-64
2021/03/29 01:56:23;;;;;;;12.33;5.50;;;9.60;99.90;;;;;;5089648;28;20405;-65
2021/03/29 01:58:50;;;;;;;11.43;5.53;;;9.60;99.90;;;;;;5089847;28;20423;-64
2021/03/29 02:01:15;;;;;;;15.80;7.77;;;9.60;99.90;;;;;;5090135;28;20523;-64
2021/03/29 02:03:41;;;;;;;7.10;5.50;;;9.50;99.90;;;;;;5089353;28;20441;-64
2021/03/29 02:06:08;;;;;;;11.90;5.60;;;9.50;99.90;;;;;;5089791;28;20597;-64
2021/03/29 02:08:38;;;;;;;9.10;5.83;;;9.50;99.90;;;;;;5089696;28;20443;-64
2021/03/29 02:11:04;;;;;;;7.97;5.60;;;9.50;99.90;;;;;;5089443;28;20404;-64
2021/03/29 02:13:34;;;;;;;15.20;6.57;;;9.50;99.90;;;;;;5089759;28;20447;-64
2021/03/29 02:16:04;;;;;;;10.00;5.93;;;9.50;99.90;;;;;;5089312;28;20405;-64
2021/03/29 02:18:36;;;;;;;12.30;5.60;;;9.40;99.90;;;;;;5087918;28;20488;-64
2021/03/29 02:21:05;;;;;;;12.07;7.00;;;9.40;99.90;;;;;;5088051;28;20393;-64
2021/03/29 02:23:32;;;;;;;11.60;5.97;;;9.40;99.90;;;;;;5089045;28;20562;-64
2021/03/29 02:26:00;;;;;;;8.13;5.43;;;9.40;99.90;;;;;;5090093;28;20404;-65
2021/03/29 02:28:26;;;;;;;9.97;6.10;;;9.40;99.90;;;;;;5089351;28;20404;-66
2021/03/29 02:30:52;;;;;;;8.77;5.50;;;9.30;99.90;;;;;;5089126;28;20405;-65
2021/03/29 02:33:18;;;;;;;12.40;5.73;;;9.30;99.90;;;;;;5087628;28;20412;-65
2021/03/29 02:35:45;;;;;;;13.03;5.93;;;9.30;99.90;;;;;;5075339;28;20156;-65
2021/03/29 02:38:14;;;;;;;11.50;7.00;;;9.30;99.90;;;;;;5074279;28;20393;-65
2021/03/29 02:40:41;;;;;;;8.10;5.17;;;9.30;99.90;;;;;;5074300;28;20457;-65
2021/03/29 02:43:07;;;;;;;11.20;5.67;;;9.30;99.90;;;;;;5075419;28;20442;-65
2021/03/29 02:45:36;;;;;;;12.80;5.63;;;9.30;99.90;;;;;;5075247;28;20417;-65
2021/03/29 02:48:06;;;;;;;12.40;6.17;;;9.20;99.90;;;;;;5075222;28;20500;-65
2021/03/29 02:50:33;;;;;;;9.30;5.70;;;9.20;99.90;;;;;;5075010;28;20489;-65
2021/03/29 02:53:03;;;;;;;11.30;5.20;;;9.20;99.90;;;;;;5073954;28;20398;-65
2021/03/29 02:55:29;;;;;;;11.50;5.80;;;9.20;99.90;;;;;;5075776;28;20432;-64
2021/03/29 02:57:59;;;;;;;15.00;6.57;;;9.20;99.90;;;;;;5075268;28;20732;-64
2021/03/29 03:00:26;;;;;;;10.17;5.40;;;9.20;99.90;;;;;;5073937;28;20424;-64
2021/03/29 03:02:55;;;;;;;11.33;5.50;;;9.20;99.90;;;;;;5073800;28;20441;-64
2021/03/29 03:05:23;;;;;;;7.97;5.20;;;9.20;99.90;;;;;;5075218;28;20442;-64
2021/03/29 03:07:51;;;;;;;12.93;5.30;;;9.20;99.90;;;;;;5075242;28;20921;-64
2021/03/29 03:10:17;;;;;;;16.60;5.93;;;9.20;99.90;;;;;;5074796;28;20422;-64
2021/03/29 03:12:44;;;;;;;11.93;5.20;;;9.20;99.90;;;;;;5074962;28;20442;-64
2021/03/29 03:15:22;;;;;;;7.73;4.80;;;9.20;99.90;;;;;;5074804;28;20166;-64
2021/03/29 03:17:48;;;;;;;9.50;4.93;;;9.20;99.90;;;;;;5073422;28;20394;-64
2021/03/29 03:20:15;;;;;;;10.83;5.93;;;9.20;99.90;;;;;;5074695;28;20390;-64
2021/03/29 03:23:04;;;;;;;8.77;5.87;;;9.10;99.90;;;;;;5074677;28;20511;-64
2021/03/29 03:25:34;;;;;;;13.40;5.43;;;9.10;99.90;;;;;;5053760;28;20947;-64
2021/03/29 03:28:02;;;;;;;13.80;6.10;;;9.10;99.90;;;;;;5054773;28;20426;-64
2021/03/29 03:30:30;;;;;;;11.00;5.27;;;9.10;99.90;;;;;;5053448;28;20389;-64
2021/03/29 03:32:56;;;;;;;12.90;5.40;;;9.10;99.90;;;;;;5053159;28;20442;-64
2021/03/29 03:35:24;;;;;;;11.77;6.30;;;9.10;99.90;;;;;;5054793;28;20394;-64
2021/03/29 03:37:55;;;;;;;12.03;5.87;;;9.10;99.90;;;;;;5054496;28;20474;-64
2021/03/29 03:40:22;;;;;;;13.70;6.50;;;9.10;99.90;;;;;;5057979;28;20413;-64
2021/03/29 03:42:50;;;;;;;12.50;4.97;;;9.10;99.90;;;;;;5073566;28;20444;-64
2021/03/29 03:45:19;;;;;;;13.20;5.60;;;9.10;99.90;;;;;;5073922;28;20396;-64
2021/03/29 03:47:46;;;;;;;8.53;5.13;;;9.10;99.90;;;;;;5073715;28;20389;-64
2021/03/29 03:50:13;;;;;;;9.77;5.43;;;9.10;99.90;;;;;;5074301;28;20446;-64
2021/03/29 03:52:41;;;;;;;9.73;6.03;;;9.00;99.90;;;;;;5074437;28;20423;-64
2021/03/29 03:55:08;;;;;;;9.93;5.10;;;9.00;99.90;;;;;;5074287;28;20414;-64
2021/03/29 03:57:38;;;;;;;8.10;4.87;;;9.00;99.90;;;;;;5072718;28;20440;-64
2021/03/29 04:00:09;;;;;;;11.93;5.93;;;9.00;99.90;;;;;;5074201;28;20874;-64
2021/03/29 04:02:35;;;;;;;7.57;5.37;;;9.00;99.90;;;;;;5073988;28;20441;-64
2021/03/29 04:05:05;;;;;;;10.90;5.27;;;9.00;99.90;;;;;;5073837;28;20413;-64
2021/03/29 04:07:30;;;;;;;8.20;4.83;;;9.00;99.90;;;;;;5072856;28;20444;-64
2021/03/29 04:10:00;;;;;;;13.13;5.27;;;9.00;99.90;;;;;;5074828;28;20398;-64
2021/03/29 04:12:26;;;;;;;11.10;4.50;;;9.00;99.90;;;;;;5073767;28;20650;-64
2021/03/29 04:14:51;;;;;;;7.00;4.73;;;9.00;99.90;;;;;;5073564;28;20433;-64
2021/03/29 04:17:17;;;;;;;10.53;4.73;;;9.00;99.90;;;;;;5073746;28;20640;-64
2021/03/29 04:19:42;;;;;;;10.73;5.60;;;9.00;99.90;;;;;;5074249;28;20178;-64
2021/03/29 04:22:09;;;;;;;12.27;5.40;;;9.00;99.90;;;;;;5073293;28;20163;-64
2021/03/29 04:24:34;;;;;;;9.30;6.33;;;9.00;99.90;;;;;;5072481;28;20163;-64
2021/03/29 04:27:00;;;;;;;13.33;5.70;;;9.00;99.90;;;;;;5073339;28;20385;-64
2021/03/29 04:29:26;;;;;;;9.90;5.03;;;8.90;99.90;;;;;;5072352;28;20184;-64
2021/03/29 04:31:53;;;;;;;11.30;4.87;;;8.90;99.90;;;;;;5073517;28;20175;-64
2021/03/29 04:34:19;;;;;;;9.90;5.63;;;8.90;99.90;;;;;;5073182;28;20404;-64
2021/03/29 04:36:44;;;;;;;11.10;4.90;;;8.90;99.90;;;;;;5073365;28;20397;-64
2021/03/29 04:39:10;;;;;;;7.80;5.03;;;8.80;99.90;;;;;;5073713;28;20160;-64
2021/03/29 04:41:35;;;;;;;11.43;4.50;;;8.80;99.90;;;;;;5073238;28;20658;-64
2021/03/29 04:44:01;;;;;;;5.80;3.70;;;8.80;99.90;;;;;;5073517;28;20188;-65
2021/03/29 04:46:26;;;;;;;10.53;4.90;;;8.80;99.90;;;;;;5073020;28;20194;-64
2021/03/29 04:48:52;;;;;;;13.23;4.53;;;8.80;99.90;;;;;;5073260;28;20186;-64
2021/03/29 04:51:17;;;;;;;9.97;5.83;;;8.80;99.90;;;;;;5073229;28;20166;-64
2021/03/29 04:53:43;;;;;;;8.97;4.87;;;8.80;99.90;;;;;;5073328;28;20187;-64
2021/03/29 04:56:09;;;;;;;8.07;4.40;;;8.80;99.90;;;;;;5073265;28;20178;-64
2021/03/29 04:58:34;;;;;;;11.50;4.70;;;8.80;99.90;;;;;;5072774;28;20170;-64
2021/03/29 05:01:00;;;;;;;8.57;4.97;;;8.90;99.90;;;;;;5072931;28;20163;-64
2021/03/29 05:03:25;;;;;;;11.97;5.17;;;8.90;99.90;;;;;;5072927;28;20187;-64
2021/03/29 05:05:51;;;;;;;10.07;4.80;;;8.80;99.90;;;;;;5073338;28;20525;-64
2021/03/29 05:08:17;;;;;;;7.60;4.50;;;8.80;99.90;;;;;;5073375;28;20152;-64
2021/03/29 05:10:43;;;;;;;9.47;4.20;;;8.80;99.90;;;;;;5073395;28;20634;-64
2021/03/29 05:13:08;;;;;;;11.27;4.53;;;8.80;99.90;;;;;;5072998;28;20429;-64
2021/03/29 05:15:34;;;;;;;10.17;5.47;;;8.80;99.90;;;;;;5073280;28;20159;-64
2021/03/29 05:18:00;;;;;;;14.50;5.60;;;8.80;99.90;;;;;;5071855;28;20525;-64
2021/03/29 05:20:26;;;;;;;12.83;5.27;;;8.80;99.90;;;;;;5073201;28;20894;-64
2021/03/29 05:22:51;;;;;;;10.93;5.50;;;8.80;99.90;;;;;;5072835;28;20634;-64
2021/03/29 05:25:17;;;;;;;8.97;4.17;;;8.80;99.90;;;;;;5072773;28;20152;-64
2021/03/29 05:27:42;;;;;;;5.73;4.50;;;8.80;99.90;;;;;;5072831;28;20608;-64
2021/03/29 05:30:09;;;;;;;9.87;4.63;;;8.80;99.90;;;;;;5073004;28;20155;-64
2021/03/29 05:32:34;;;;;;;8.80;3.80;;;8.80;99.90;;;;;;5073075;28;20582;-64
2021/03/29 05:35:01;;;;;;;7.03;3.70;;;8.80;99.90;;;;;;5073320;28;20401;-64
2021/03/29 05:37:27;;;;;;;13.43;4.53;;;8.80;99.90;;;;;;5071623;28;20695;-64
2021/03/29 05:39:56;;;;;;;8.77;5.23;;;8.80;99.90;;;;;;5071375;28;20421;-64
2021/03/29 05:42:23;;;;;;;9.70;4.63;;;8.80;99.90;;;;;;5071328;28;20449;-64
2021/03/29 05:44:53;;;;;;;8.27;5.17;;;8.80;99.90;;;;;;5071775;28;20905;-64
2021/03/29 05:47:18;;;;;;;12.57;4.50;;;8.90;99.90;;;;;;5072675;28;20491;-64
2021/03/29 05:49:44;;;;;;;9.43;4.10;;;8.90;99.90;;;;;;5073102;28;20394;-64
2021/03/29 05:52:10;;;;;;;7.53;4.17;;;8.90;99.90;;;;;;5072818;28;20159;-65
2021/03/29 05:54:37;;;;;;;8.50;4.13;;;9.00;99.90;;;;;;5071456;28;20180;-65
2021/03/29 05:57:03;;;;;;;7.07;3.73;;;9.00;99.90;;;;;;5072566;28;20432;-64
2021/03/29 05:59:44;;;;;;;9.50;4.50;;;9.10;99.90;;;;;;5072545;28;20398;-65
2021/03/29 06:02:26;;;;;;;5.47;3.87;;;9.10;99.90;;;;;;5072719;28;20394;-65
2021/03/29 06:04:52;;;;;;;5.50;4.13;;;9.10;99.90;;;;;;5072812;28;20386;-65
2021/03/29 06:07:27;;;;;;;8.50;4.17;;;9.10;99.90;;;;;;5072250;28;20463;-65
2021/03/29 06:10:03;;;;;;;7.67;4.57;;;9.10;99.90;;;;;;5074265;28;20288;-65
2021/03/29 06:12:46;;;;;;;7.33;4.80;;;9.10;99.90;;;;;;5076142;28;20495;-65
2021/03/29 06:15:12;;;;;;;13.97;4.87;;;9.20;99.90;;;;;;5075998;28;20424;-64
2021/03/29 06:17:38;;;;;;;7.67;4.60;;;9.20;99.90;;;;;;5076343;28;20406;-65
2021/03/29 06:20:05;;;;;;;5.47;3.30;;;9.20;99.90;;;;;;5075975;28;20751;-65
2021/03/29 06:22:41;;;;;;;8.43;4.13;;;9.30;99.90;;;;;;5075841;28;20252;-65
2021/03/29 06:27:55;;;;;;;9.77;4.13;;;9.30;99.90;;;;;;5131450;27;20910;-65
2021/03/29 06:30:37;;;;;;;9.97;4.63;;;9.40;99.90;;;;;;5128709;28;20410;-65
2021/03/29 06:38:27;;;;;;;10.00;4.20;;;9.40;99.90;;;;;;5131506;27;20500;-64
2021/03/29 06:49:01;;;;;;;13.63;4.73;;;9.70;99.90;;;;;;5110566;27;20518;-63
2021/03/29 06:51:31;;;;;;;11.07;4.30;;;9.70;99.90;;;;;;5111049;28;20392;-63
2021/03/29 06:56:39;;;;;;;11.13;4.67;;;9.80;99.90;;;;;;5111096;27;20566;-65
2021/03/29 07:01:51;;;;;;;9.80;4.17;;;9.80;99.90;;;;;;5111001;27;21090;-64
2021/03/29 07:04:22;;;;;;;6.27;3.23;;;10.10;99.90;;;;;;5108506;28;20400;-65
2021/03/29 07:06:49;;;;;;;6.00;3.60;;;10.10;99.90;;;;;;5090716;28;20897;-64
2021/03/29 07:09:16;;;;;;;15.07;4.07;;;10.20;99.90;;;;;;5090496;28;20438;-65
2021/03/29 07:11:44;;;;;;;8.50;4.70;;;10.30;99.90;;;;;;5072672;28;20377;-64
2021/03/29 07:14:11;;;;;;;6.80;3.50;;;10.40;99.90;;;;;;5090706;28;20863;-64
2021/03/29 07:16:38;;;;;;;5.00;3.43;;;10.50;99.90;;;;;;5090354;28;20386;-64
2021/03/29 07:19:06;;;;;;;10.80;3.90;;;10.60;99.90;;;;;;5090276;28;20385;-64
2021/03/29 07:21:32;;;;;;;9.70;3.60;;;10.70;99.90;;;;;;5072649;28;20483;-64
2021/03/29 07:24:07;;;;;;;7.63;3.70;;;10.80;99.90;;;;;;5090258;28;20385;-64
2021/03/29 07:29:32;;;;;;;9.03;3.63;;;10.90;99.90;;;;;;5090634;28;20538;-65
2021/03/29 07:34:42;;;;;;;7.00;2.80;;;11.00;99.90;;;;;;5111000;27;20922;-64
2021/03/29 07:37:48;;;;;;;8.80;3.30;;;11.20;99.90;;;;;;5111209;28;20421;-64
2021/03/29 07:42:54;;;;;;;11.00;4.30;;;11.30;99.90;;;;;;5090570;27;20515;-65
2021/03/29 07:45:26;;;;;;;7.20;3.10;;;11.40;99.90;;;;;;5090423;28;20377;-65
2021/03/29 07:47:54;;;;;;;6.40;2.90;;;11.40;99.90;;;;;;5089438;28;20382;-65
2021/03/29 07:53:19;;;;;;;6.23;2.90;;;11.70;99.90;;;;;;5131404;27;20511;-64
2021/03/29 07:55:47;;;;;;;9.93;3.47;;;11.80;99.90;;;;;;5122634;28;20414;-64
2021/03/29 07:58:15;;;;;;;5.40;2.73;;;11.80;99.90;;;;;;5109808;28;20516;-64
2021/03/29 08:00:43;;;;;;;7.20;3.10;;;11.90;99.90;;;;;;5109746;28;20431;-64
2021/03/29 08:05:50;;;;;;;6.57;3.00;;;12.00;99.90;;;;;;5131597;27;20824;-64
2021/03/29 08:11:10;;;;;;;8.73;3.50;;;12.20;99.90;;;;;;5131700;27;20523;-65
2021/03/29 08:16:15;;;;;;;9.33;2.93;;;12.50;99.90;;;;;;5131377;27;20515;-66
2021/03/29 08:19:20;;;;;;;5.33;2.87;;;12.80;99.90;;;;;;5130602;28;20387;-66
2021/03/29 08:29:53;;;;;;;8.17;3.27;;;13.20;99.90;;;;;;5123616;27;20510;-64
2021/03/29 08:32:29;;;;;;;6.80;2.93;;;13.30;99.90;;;;;;5109649;28;20390;-64
2021/03/29 08:35:11;;;;;;;5.90;3.30;;;13.50;99.90;;;;;;5110971;28;20388;-64
2021/03/29 08:42:54;;;;;;;9.50;3.20;;;13.80;99.90;;;;;;5131543;27;20508;-64
2021/03/29 08:45:25;;;;;;;9.23;3.37;;;14.70;97.30;;;;;;5130633;28;20407;-64
2021/03/29 08:47:54;;;;;;;9.40;2.50;;;14.90;96.40;;;;;;5098031;28;20491;-64
2021/03/29 08:50:24;;;;;;;6.33;3.20;;;15.10;95.40;;;;;;5110848;28;20388;-64
2021/03/29 08:52:52;;;;;;;4.60;2.90;;;15.20;93.80;;;;;;5110083;28;20390;-64
2021/03/29 08:55:20;;;;;;;8.03;2.87;;;15.40;92.70;;;;;;5109679;28;20843;-64
2021/03/29 08:57:47;;;;;;;5.47;2.83;;;15.70;91.70;;;;;;5110932;28;20384;-64
2021/03/29 09:00:17;;;;;;;10.70;3.20;;;16.00;88.40;;;;;;5109600;28;20407;-64
2021/03/29 09:02:43;;;;;;;5.23;2.57;;;16.40;84.20;;;;;;5109271;28;20443;-64
2021/03/29 09:05:11;;;;;;;5.70;2.70;;;16.70;78.40;;;;;;5128666;28;20509;-64
2021/03/29 09:07:41;;;;;;;11.97;3.23;;;17.10;77.40;;;;;;5130005;28;20391;-64
2021/03/29 09:15:36;;;;;;;4.80;2.10;;;18.20;65.20;;;;;;5110947;27;20554;-65
2021/03/29 09:18:05;;;;;;;10.17;5.23;;;18.40;65.30;;;;;;5111065;28;20416;-65
2021/03/29 09:20:37;;;;;;;12.00;5.20;;;18.80;61.30;;;;;;5104908;28;20408;-65
2021/03/29 09:23:03;;;;;;;10.00;3.90;;;19.20;59.10;;;;;;5089614;28;20476;-65
2021/03/29 09:25:34;;;;;;;14.53;4.97;;;19.40;57.30;;;;;;5090739;27;20786;-65
2021/03/29 09:28:23;;;;;;;7.00;3.87;;;19.60;56.30;;;;;;5090569;28;20163;-65
2021/03/29 09:30:52;;;;;;;6.50;2.90;;;19.80;55.10;;;;;;5089406;28;20381;-65
2021/03/29 09:33:19;;;;;;;14.27;3.90;;;20.00;54.80;;;;;;5090328;28;20461;-65
2021/03/29 09:35:46;;;;;;;7.20;3.50;;;20.10;53.00;;;;;;5090553;27;20393;-65
2021/03/29 09:38:13;;;;;;;8.03;2.80;;;20.00;52.50;;;;;;5091022;28;20405;-65
2021/03/29 09:40:39;;;;;;;5.27;2.80;;;19.80;51.60;;;;;;5090139;28;20393;-65
2021/03/29 09:43:05;;;;;;;6.50;3.10;;;19.40;51.90;;;;;;5088746;28;20462;-65
2021/03/29 09:45:34;;;;;;;7.70;3.30;;;19.10;52.60;;;;;;5088693;28;20432;-65
2021/03/29 09:48:09;;;;;;;7.40;3.03;;;18.80;52.40;;;;;;5088639;28;20404;-65
2021/03/29 09:50:38;;;;;;;6.97;3.00;;;18.60;52.60;;;;;;5088883;28;20478;-65
2021/03/29 10:01:01;;;;;;;4.77;2.80;;;18.00;54.40;;;;;;5131572;27;20511;-66
2021/03/29 10:03:27;;;;;;;6.87;3.03;;;17.90;54.70;;;;;;5130264;28;20392;-66
2021/03/29 10:05:54;;;;;;;4.30;2.70;;;17.70;53.80;;;;;;5131455;28;20437;-66
2021/03/29 10:08:35;;;;;;;7.27;3.17;;;17.70;55.40;;;;;;5130150;28;20379;-66
2021/03/29 10:11:06;;;;;;;7.63;2.93;;;17.60;55.10;;;;;;5130826;28;20383;-66
2021/03/29 10:13:38;;;;;;;7.40;3.20;;;17.40;56.30;;;;;;5109749;28;20892;-66
2021/03/29 10:16:21;;;;;;;11.03;6.67;;;17.30;56.30;;;;;;5109590;28;20391;-66
2021/03/29 10:19:00;;;;;;;10.00;4.30;;;17.20;56.80;;;;;;5110624;28;20810;-66
2021/03/29 10:21:26;;;;;;;10.87;3.07;;;17.00;58.40;;;;;;5109499;28;20396;-66
2021/03/29 10:24:10;;;;;;;11.90;2.93;;;16.90;58.80;;;;;;5110719;28;20393;-66
2021/03/29 10:26:37;;;;;;;7.03;2.77;;;16.80;58.00;;;;;;5110649;28;20161;-66
2021/03/29 10:29:05;;;;;;;5.97;2.70;;;16.70;56.80;;;;;;5110827;28;20419;-66
2021/03/29 10:31:33;;;;;;;7.63;2.40;;;16.70;55.40;;;;;;5110722;28;20524;-66
2021/03/29 10:34:00;;;;;;;3.93;2.30;;;16.60;55.30;;;;;;5109317;28;20396;-66
2021/03/29 10:36:28;;;;;;;5.23;1.50;;;16.60;52.30;;;;;;5110196;28;20393;-65
2021/03/29 10:38:55;;;;;;;3.63;2.13;;;16.50;53.90;;;;;;5110264;28;20857;-66
2021/03/29 10:41:21;;;;;;;3.57;1.60;;;16.50;52.30;;;;;;5109224;28;20393;-66
2021/03/29 10:43:47;;;;;;;4.13;1.70;;;16.50;53.10;;;;;;5109265;28;20388;-66
2021/03/29 10:46:13;;;;;;;2.60;1.83;;;16.50;52.40;;;;;;5110617;28;20428;-66
2021/03/29 10:48:39;;;;;;;4.03;2.07;;;16.40;53.00;;;;;;5110298;28;20877;-66
2021/03/29 10:51:06;;;;;;;5.40;1.90;;;16.40;52.30;;;;;;5110120;28;20161;-66
2021/03/29 10:53:32;;;;;;;7.83;2.20;;;16.30;54.20;;;;;;5110071;28;20417;-66
2021/03/29 10:55:58;;;;;;;2.60;1.37;;;16.20;54.30;;;;;;5110099;28;20483;-66
2021/03/29 10:58:24;;;;;;;2.33;1.40;;;16.00;55.40;;;;;;5110028;28;20439;-66
2021/03/29 11:00:49;;;;;;;4.37;1.80;;;16.00;55.60;;;;;;5109505;28;20202;-65
2021/03/29 11:03:15;;;;;;;3.70;1.90;;;15.80;53.60;;;;;;5120500;28;20165;-65
2021/03/29 11:05:41;;;;;;;2.63;1.97;;;15.80;52.20;;;;;;5130471;28;20183;-65
2021/03/29 11:08:06;;;;;;;3.73;1.90;;;15.80;54.10;;;;;;5130328;27;20384;-66
2021/03/29 11:10:33;;;;;;;2.67;1.47;;;15.70;55.40;;;;;;5126627;27;20237;-65
2021/03/29 11:13:00;;;;;;;6.43;2.93;;;15.70;53.30;;;;;;5116320;28;20151;-66
2021/03/29 11:15:26;;;;;;;3.50;1.57;;;15.70;51.50;;;;;;5115300;28;20732;-66
2021/03/29 11:17:51;;;;;;;4.13;1.87;;;15.80;53.30;;;;;;5097980;28;20392;-66
2021/03/29 11:20:17;;;;;;;4.50;1.87;;;15.70;54.10;;;;;;5115155;28;20238;-66
2021/03/29 11:22:43;;;;;;;4.20;1.70;;;15.70;53.90;;;;;;5116290;28;20154;-66
2021/03/29 11:25:10;;;;;;;3.97;1.50;;;15.70;54.40;;;;;;5116541;28;20150;-66
2021/03/29 11:27:35;;;;;;;5.47;2.43;;;15.60;54.40;;;;;;5116254;28;20396;-66
2021/03/29 11:30:03;;;;;;;3.13;1.60;;;15.60;54.50;;;;;;5115286;28;20763;-66
2021/03/29 11:32:29;;;;;;;3.30;1.60;;;15.50;54.90;;;;;;5116295;28;20189;-66
2021/03/29 11:34:54;;;;;;;3.70;1.77;;;15.50;55.80;;;;;;5116159;28;20392;-65
2021/03/29 11:37:20;;;;;;;7.33;2.00;;;15.50;52.80;;;;;;5115396;28;20184;-66
2021/03/29 11:39:46;;;;;;;2.87;1.60;;;15.60;51.80;;;;;;5116051;28;20189;-66
2021/03/29 11:42:11;;;;;;;2.87;1.80;;;15.60;53.50;;;;;;5116069;28;20736;-66
2021/03/29 11:44:37;;;;;;;3.83;1.97;;;15.60;53.40;;;;;;5115090;28;20210;-66
2021/03/29 11:47:02;;;;;;;4.63;1.60;;;15.50;54.30;;;;;;5115778;28;20182;-66
2021/03/29 11:49:28;;;;;;;6.03;1.60;;;15.50;54.60;;;;;;5115989;28;20161;-66
2021/03/29 11:51:54;;;;;;;1.30;1.20;;;15.40;55.70;;;;;;5115796;28;20758;-66
2021/03/29 11:54:19;;;;;;;3.60;2.40;;;15.40;53.50;;;;;;5104258;28;20661;-65
2021/03/29 11:56:45;;;;;;;4.50;1.93;;;15.40;54.20;;;;;;5095177;28;20162;-65
2021/03/29 11:59:10;;;;;;;6.30;2.57;;;15.40;50.50;;;;;;5095222;28;20205;-65
2021/03/29 12:01:50;;;;;;;3.50;2.07;;;15.50;52.60;;;;;;5095323;28;20669;-66
2021/03/29 12:04:22;;;;;;;8.63;2.03;;;15.40;51.90;;;;;;5095329;28;20241;-66
2021/03/29 12:07:07;;;;;;;3.53;1.93;;;15.40;52.70;;;;;;5095267;28;20428;-66
2021/03/29 12:09:42;;;;;;;3.40;1.70;;;15.40;52.20;;;;;;5095135;28;20462;-65
2021/03/29 12:12:08;;;;;;;2.07;1.70;;;15.50;50.60;;;;;;5094602;28;20412;-65
2021/03/29 12:14:36;;;;;;;2.17;1.90;;;15.50;53.90;;;;;;5094743;28;20403;-65
2021/03/29 12:17:04;;;;;;;3.53;1.73;;;15.50;52.50;;;;;;5093771;28;20393;-65
2021/03/29 12:19:30;;;;;;;3.10;1.73;;;15.50;54.40;;;;;;5093796;28;20441;-66
2021/03/29 12:22:05;;;;;;;6.30;2.30;;;15.50;54.30;;;;;;5094609;28;20408;-66
2021/03/29 12:24:34;;;;;;;4.93;2.27;;;15.40;55.60;;;;;;5094343;28;20388;-66
2021/03/29 12:27:02;;;;;;;3.93;2.10;;;15.30;57.40;;;;;;5095098;28;20446;-66
2021/03/29 12:29:37;;;;;;;3.23;1.53;;;15.30;54.10;;;;;;5093276;28;20389;-65
2021/03/29 12:32:05;;;;;;;1.47;1.00;;;15.30;55.00;;;;;;5094680;28;20427;-65
2021/03/29 12:34:31;;;;;;;1.30;0.97;;;15.30;59.20;;;;;;5093360;28;20753;-65
2021/03/29 12:36:57;;;;;;;1.30;1.17;;;15.30;62.50;;;;;;5094542;28;20400;-65
2021/03/29 12:39:30;;;;;;;2.47;1.70;;;15.30;59.20;;;;;;5094548;28;20796;-65
2021/03/29 12:41:57;;;;;;;4.37;1.43;;;15.30;55.80;;;;;;5094605;28;20395;-65
2021/03/29 12:44:25;;;;;;;2.60;1.40;;;15.30;57.30;;;;;;5095110;28;20803;-65
2021/03/29 12:46:56;;;;;;;4.50;1.50;;;15.30;56.00;;;;;;5094407;28;20980;-65
2021/03/29 12:49:22;;;;;;;7.43;2.00;;;15.30;55.70;;;;;;5094019;28;20439;-65
2021/03/29 12:51:54;;;;;;;2.40;1.50;;;15.30;56.40;;;;;;5094523;28;20397;-65
2021/03/29 12:54:24;;;;;;;1.93;1.73;;;15.20;59.50;;;;;;5094494;28;20760;-65
2021/03/29 12:56:50;;;;;;;5.27;1.83;;;15.20;60.50;;;;;;5092722;28;20817;-65
2021/03/29 12:59:18;;;;;;;5.10;2.00;;;15.30;51.80;;;;;;5094104;28;20551;-65
2021/03/29 13:01:44;;;;;;;7.13;1.70;;;15.50;50.00;;;;;;5094652;28;20179;-65
2021/03/29 13:04:14;;;;;;;5.40;1.63;;;15.60;53.30;;;;;;5093805;28;20408;-65
2021/03/29 13:06:46;;;;;;;6.43;2.97;;;15.50;56.40;;;;;;5092813;28;20158;-65
2021/03/29 13:09:25;;;;;;;3.87;3.13;;;15.60;48.90;;;;;;5094273;28;20404;-65
2021/03/29 13:11:55;;;;;;;2.70;1.90;;;15.70;53.30;;;;;;5094070;28;20385;-65
2021/03/29 13:14:21;;;;;;;3.37;1.90;;;15.60;58.30;;;;;;5093911;28;20397;-65
2021/03/29 13:16:46;;;;;;;4.07;1.70;;;15.50;53.10;;;;;;5093586;28;20892;-65
2021/03/29 13:19:12;;;;;;;7.60;2.17;;;15.50;53.90;;;;;;5094005;28;20838;-65
2021/03/29 13:21:37;;;;;;;3.67;2.57;;;15.50;52.60;;;;;;5093743;28;20627;-65
2021/03/29 13:24:04;;;;;;;3.37;1.90;;;15.50;48.90;;;;;;5093562;28;20159;-65
2021/03/29 13:26:29;;;;;;;4.00;2.20;;;15.40;52.60;;;;;;5094145;28;20678;-65
2021/03/29 13:28:55;;;;;;;2.27;1.00;;;15.40;55.10;;;;;;5093629;28;20479;-66
2021/03/29 13:31:22;;;;;;;3.23;1.90;;;15.30;56.90;;;;;;5092261;28;20194;-65
2021/03/29 13:33:48;;;;;;;4.53;1.23;;;15.20;59.30;;;;;;5093423;28;20730;-65
2021/03/29 13:36:14;;;;;;;1.70;1.60;;;15.20;54.70;;;;;;5094177;28;20507;-65
2021/03/29 13:38:39;;;;;;;9.93;2.20;;;15.20;53.60;;;;;;5093621;28;20431;-65
2021/03/29 13:41:07;;;;;;;2.80;1.87;;;15.10;54.30;;;;;;5092162;28;20161;-65
2021/03/29 13:43:41;;;;;;;1.97;1.40;;;15.10;50.80;;;;;;5093286;28;20167;-65
2021/03/29 13:46:09;;;;;;;1.97;1.40;;;15.10;53.80;;;;;;5093408;28;20513;-65
2021/03/29 13:48:35;;;;;;;5.10;1.77;;;15.10;55.70;;;;;;5092276;28;20475;-65
2021/03/29 13:51:02;;;;;;;1.47;1.20;;;15.00;52.10;;;;;;5093736;28;20400;-65
2021/03/29 13:53:36;;;;;;;3.17;1.33;;;15.00;56.40;;;;;;5092460;28;20478;-65
2021/03/29 13:56:02;;;;;;;3.23;1.57;;;14.90;56.40;;;;;;5093355;28;20393;-65
2021/03/29 13:58:27;;;;;;;2.50;1.70;;;14.90;57.90;;;;;;5092964;28;20411;-65
2021/03/29 14:00:55;;;;;;;4.23;1.90;;;14.80;59.00;;;;;;5092860;28;20728;-65
2021/03/29 14:03:21;;;;;;;2.80;1.60;;;14.80;60.60;;;;;;5092347;28;20510;-65
2021/03/29 14:05:46;;;;;;;2.17;1.63;;;14.80;56.80;;;;;;5094002;28;20450;-65